createdAt,value
2019-05-29T00:00:42.716Z,98802.65
2019-05-29T00:03:18.767Z,98798.73
2019-05-29T00:05:54.936Z,98805.28
2019-05-29T00:08:30.962Z,98810.97
2019-05-29T00:11:07.967Z,98813.38
2019-05-29T00:13:44.109Z,98813.75
2019-05-29T00:16:20.134Z,98817.00
2019-05-29T00:18:58.258Z,98815.93
2019-05-29T00:21:34.047Z,98816.53
2019-05-29T00:24:10.393Z,98820.89
2019-05-29T00:26:46.661Z,98834.02
2019-05-29T00:29:22.911Z,98831.11
2019-05-29T00:31:58.965Z,98825.88
2019-05-29T00:34:35.440Z,98827.45
2019-05-29T00:37:12.496Z,98839.73
2019-05-29T00:39:48.689Z,98840.72
2019-05-29T00:42:24.736Z,98844.50
2019-05-29T00:45:00.961Z,98854.42
2019-05-29T00:47:37.988Z,98858.55
2019-05-29T00:50:14.269Z,98853.58
2019-05-29T00:52:50.408Z,98855.41
2019-05-29T00:55:26.465Z,98852.09
2019-05-29T00:58:02.455Z,98854.07
2019-05-29T01:00:39.401Z,98852.97
2019-05-29T01:03:15.965Z,98852.86
2019-05-29T01:05:52.361Z,98855.76
2019-05-29T01:08:28.304Z,98853.43
2019-05-29T01:11:04.300Z,98860.25
2019-05-29T01:13:40.510Z,98862.92
2019-05-29T01:16:17.465Z,98859.76
2019-05-29T01:18:55.306Z,98865.10
2019-05-29T01:21:31.671Z,98867.28
2019-05-29T01:24:07.834Z,98870.09
2019-05-29T01:26:43.812Z,98869.95
2019-05-29T01:29:20.927Z,98870.70
2019-05-29T01:31:57.232Z,98873.87
2019-05-29T01:34:33.195Z,98878.59
2019-05-29T01:37:09.701Z,98876.53
2019-05-29T01:39:45.825Z,98882.98
2019-05-29T01:42:22.078Z,98890.27
2019-05-29T01:45:07.643Z,98883.59
2019-05-29T01:47:35.845Z,98892.79
2019-05-29T01:50:12.124Z,98893.43
2019-05-29T01:52:48.354Z,98900.56
2019-05-29T01:55:24.326Z,98894.77
2019-05-29T01:58:00.698Z,98910.43
2019-05-29T02:00:36.755Z,98918.09
2019-05-29T02:03:12.806Z,98917.45
2019-05-29T02:05:48.865Z,98919.89
2019-05-29T02:08:24.990Z,98922.96
2019-05-29T02:11:00.984Z,98932.53
2019-05-29T02:13:37.348Z,98931.34
2019-05-29T02:16:14.117Z,98942.75
2019-05-29T02:18:50.192Z,98947.48
2019-05-29T02:21:26.351Z,98953.68
2019-05-29T02:24:02.257Z,98957.80
2019-05-29T02:26:38.252Z,98970.19
2019-05-29T02:29:14.640Z,98969.45
2019-05-29T02:31:50.673Z,98967.99
2019-05-29T02:34:29.998Z,98981.48
2019-05-29T02:37:06.185Z,98984.86
2019-05-29T02:39:42.234Z,98985.94
2019-05-29T02:42:20.858Z,98996.02
2019-05-29T02:44:57.048Z,98998.57
2019-05-29T02:47:33.281Z,99017.61
2019-05-29T02:50:09.756Z,99016.52
2019-05-29T02:52:45.925Z,99017.25
2019-05-29T02:55:22.611Z,99019.53
2019-05-29T02:57:59.158Z,99023.19
2019-05-29T03:00:52.952Z,99027.08
2019-05-29T03:03:33.188Z,99038.11
2019-05-29T03:06:08.107Z,99042.22
2019-05-29T03:08:44.275Z,99042.71
2019-05-29T03:11:20.333Z,99056.06
2019-05-29T03:13:56.388Z,99054.38
2019-05-29T03:16:34.682Z,99057.75
2019-05-29T03:19:10.303Z,99058.23
2019-05-29T03:21:47.038Z,99061.27
2019-05-29T03:24:24.511Z,99077.30
2019-05-29T03:27:00.421Z,99080.08
2019-05-29T03:29:38.540Z,99081.41
2019-05-29T03:32:14.885Z,99087.97
2019-05-29T03:34:50.903Z,99085.66
2019-05-29T03:37:28.223Z,99102.41
2019-05-29T03:40:06.821Z,99106.02
2019-05-29T03:42:42.808Z,99116.23
2019-05-29T03:45:18.721Z,99124.59
2019-05-29T03:47:54.657Z,99134.67
2019-05-29T03:50:32.490Z,99135.03
2019-05-29T03:53:08.369Z,99137.59
2019-05-29T03:55:45.426Z,99144.61
2019-05-29T03:58:21.384Z,99156.27
2019-05-29T04:00:57.850Z,99160.38
2019-05-29T04:03:35.389Z,99159.44
2019-05-29T04:06:11.565Z,99173.52
2019-05-29T04:08:47.671Z,99171.44
2019-05-29T04:11:24.629Z,99179.56
2019-05-29T04:14:00.529Z,99187.07
2019-05-29T04:19:15.858Z,99194.03
2019-05-29T04:21:54.757Z,99200.21
2019-05-29T04:24:33.983Z,99202.50
2019-05-29T04:27:13.943Z,99199.23
2019-05-29T04:29:50.753Z,99206.40
2019-05-29T04:32:28.102Z,99214.80
2019-05-29T04:35:04.555Z,99219.78
2019-05-29T04:37:40.534Z,99217.33
2019-05-29T04:40:16.744Z,99221.33
2019-05-29T04:42:52.675Z,99220.13
2019-05-29T04:45:29.020Z,99227.90
2019-05-29T04:48:05.456Z,99226.91
2019-05-29T04:50:41.445Z,99232.50
2019-05-29T04:53:17.498Z,99244.40
2019-05-29T04:55:53.509Z,99246.20
2019-05-29T04:58:29.411Z,99255.44
2019-05-29T05:01:05.347Z,99255.83
2019-05-29T05:03:41.381Z,99251.67
2019-05-29T05:06:17.389Z,99266.27
2019-05-29T05:08:53.396Z,99270.86
2019-05-29T05:11:29.485Z,99268.80
2019-05-29T05:14:06.480Z,99271.36
2019-05-29T05:16:42.492Z,99268.94
2019-05-29T05:19:18.871Z,99270.13
2019-05-29T05:21:55.935Z,99272.70
2019-05-29T05:24:32.190Z,99271.36
2019-05-29T05:27:08.677Z,99270.42
2019-05-29T05:29:44.760Z,99281.84
2019-05-29T05:32:20.902Z,99277.95
2019-05-29T05:34:57.260Z,99287.08
2019-05-29T05:37:34.769Z,99287.33
2019-05-29T05:40:11.642Z,99291.09
2019-05-29T05:42:47.797Z,99295.70
2019-05-29T05:45:24.974Z,99297.52
2019-05-29T05:48:01.091Z,99298.37
2019-05-29T05:50:37.373Z,99308.70
2019-05-29T05:53:14.475Z,99311.58
2019-05-29T05:55:50.447Z,99314.14
2019-05-29T05:58:26.387Z,99328.54
2019-05-29T06:01:02.252Z,99320.78
2019-05-29T06:03:38.539Z,99322.95
2019-05-29T06:06:14.570Z,99334.86
2019-05-29T06:08:50.740Z,99327.69
2019-05-29T06:11:26.683Z,99334.01
2019-05-29T06:14:03.051Z,99336.55
2019-05-29T06:16:39.007Z,99340.95
2019-05-29T06:19:15.061Z,99334.03
2019-05-29T06:21:51.286Z,99340.56
2019-05-29T06:24:27.293Z,99343.96
2019-05-29T06:27:03.340Z,99344.80
2019-05-29T06:29:39.455Z,99354.66
2019-05-29T06:32:15.681Z,99352.97
2019-05-29T06:34:51.734Z,99360.89
2019-05-29T06:37:27.900Z,99356.04
2019-05-29T06:40:04.977Z,99360.20
2019-05-29T06:42:41.959Z,99361.30
2019-05-29T06:45:21.297Z,99368.33
2019-05-29T06:47:57.757Z,99371.25
2019-05-29T06:50:35.293Z,99372.48
2019-05-29T06:53:11.403Z,99380.83
2019-05-29T06:55:52.940Z,99385.08
2019-05-29T06:58:25.277Z,99390.69
2019-05-29T07:01:01.218Z,99396.14
2019-05-29T07:03:37.678Z,99403.32
2019-05-29T07:06:13.849Z,99401.33
2019-05-29T07:08:50.941Z,99411.63
2019-05-29T07:11:27.102Z,99410.30
2019-05-29T07:14:03.269Z,99411.03
2019-05-29T07:16:45.329Z,99422.92
2019-05-29T07:19:26.593Z,99415.81
2019-05-29T07:21:55.023Z,99423.23
2019-05-29T07:24:31.382Z,99426.38
2019-05-29T07:27:12.728Z,99429.09
2019-05-29T07:29:45.260Z,99427.50
2019-05-29T07:32:21.344Z,99438.94
2019-05-29T07:35:03.594Z,99442.34
2019-05-29T07:37:37.867Z,99448.41
2019-05-29T07:40:14.187Z,99452.66
2019-05-29T07:42:56.097Z,99453.99
2019-05-29T07:45:28.159Z,99453.78
2019-05-29T07:48:04.526Z,99458.15
2019-05-29T07:50:40.474Z,99461.02
2019-05-29T07:53:16.730Z,99466.38
2019-05-29T07:55:52.804Z,99469.88
2019-05-29T07:58:29.070Z,99484.23
2019-05-29T08:01:13.229Z,99488.48
2019-05-29T08:03:43.507Z,99488.50
2019-05-29T08:06:19.787Z,99502.61
2019-05-29T08:08:55.675Z,99496.77
2019-05-29T08:11:31.814Z,99504.00
2019-05-29T08:14:07.965Z,99509.00
2019-05-29T08:16:44.090Z,99516.98
2019-05-29T08:19:20.401Z,99517.47
2019-05-29T08:21:57.186Z,99518.83
2019-05-29T08:24:33.240Z,99525.41
2019-05-29T08:27:09.398Z,99527.63
2019-05-29T08:29:47.013Z,99526.18
2019-05-29T08:32:22.986Z,99527.77
2019-05-29T08:34:59.114Z,99539.91
2019-05-29T08:37:35.177Z,99527.73
2019-05-29T08:40:11.635Z,99536.39
2019-05-29T08:42:49.434Z,99536.28
2019-05-29T08:45:26.518Z,99545.91
2019-05-29T08:48:02.462Z,99538.83
2019-05-29T08:50:38.442Z,99536.77
2019-05-29T08:53:14.695Z,99524.77
2019-05-29T08:55:50.792Z,99538.56
2019-05-29T08:58:27.023Z,99543.78
2019-05-29T09:01:02.980Z,99542.81
2019-05-29T09:03:39.137Z,99551.36
2019-05-29T09:06:15.189Z,99570.83
2019-05-29T09:08:54.009Z,99562.81
2019-05-29T09:11:29.044Z,99567.49
2019-05-29T09:14:05.509Z,99565.75
2019-05-29T09:16:41.587Z,99574.80
2019-05-29T09:19:18.897Z,99567.39
2019-05-29T09:21:55.466Z,99577.23
2019-05-29T09:24:31.588Z,99581.77
2019-05-29T09:27:07.761Z,99598.97
2019-05-29T09:29:43.863Z,99597.29
2019-05-29T09:32:45.549Z,99600.30
2019-05-29T09:34:57.685Z,99604.25
2019-05-29T09:37:33.785Z,99597.91
2019-05-29T09:40:20.994Z,99606.16
2019-05-29T09:42:57.122Z,99608.84
2019-05-29T09:45:33.183Z,99610.57
2019-05-29T09:48:09.502Z,99617.34
2019-05-29T09:50:49.966Z,99623.30
2019-05-29T09:53:23.502Z,99621.38
2019-05-29T09:56:00.892Z,99629.33
2019-05-29T09:58:37.049Z,99632.86
2019-05-29T10:01:22.742Z,99625.88
2019-05-29T10:03:50.806Z,99632.11
2019-05-29T10:06:26.762Z,99639.89
2019-05-29T10:09:03.742Z,99635.74
2019-05-29T10:11:39.999Z,99644.24
2019-05-29T10:14:16.382Z,99645.54
2019-05-29T10:16:52.338Z,99641.56
2019-05-29T10:19:28.378Z,99655.81
2019-05-29T10:22:05.707Z,99673.72
2019-05-29T10:24:41.829Z,99661.81
2019-05-29T10:27:17.783Z,99670.72
2019-05-29T10:29:54.329Z,99677.56
2019-05-29T10:32:30.422Z,99667.45
2019-05-29T10:35:07.373Z,99668.05
2019-05-29T10:37:44.527Z,99676.55
2019-05-29T10:40:20.858Z,99670.16
2019-05-29T10:42:56.909Z,99678.09
2019-05-29T10:45:32.975Z,99684.52
2019-05-29T10:48:09.041Z,99682.08
2019-05-29T10:50:48.833Z,99671.56
2019-05-29T10:53:32.008Z,99683.25
2019-05-29T10:56:08.158Z,99683.77
2019-05-29T10:58:49.714Z,99691.08
2019-05-29T11:01:21.927Z,99693.86
2019-05-29T11:03:57.985Z,99691.20
2019-05-29T11:06:40.184Z,99695.84
2019-05-29T11:09:13.363Z,99698.67
2019-05-29T11:11:50.668Z,99688.02
2019-05-29T11:14:26.980Z,99689.84
2019-05-29T11:17:02.973Z,99689.00
2019-05-29T11:19:39.038Z,99692.78
2019-05-29T11:22:25.647Z,99700.48
2019-05-29T11:24:54.080Z,99679.38
2019-05-29T11:27:30.297Z,99686.19
2019-05-29T11:30:08.960Z,99688.18
2019-05-29T11:32:47.638Z,99692.16
2019-05-29T11:35:23.184Z,99696.31
2019-05-29T11:37:59.548Z,99684.77
2019-05-29T11:40:36.032Z,99688.26
2019-05-29T11:43:12.639Z,99691.17
2019-05-29T11:45:48.745Z,99679.31
2019-05-29T11:48:24.795Z,99687.44
2019-05-29T11:51:00.850Z,99685.80
2019-05-29T11:53:37.945Z,99685.92
2019-05-29T11:56:13.889Z,99687.14
2019-05-29T11:58:50.756Z,99690.02
2019-05-29T12:01:27.037Z,99701.86
2019-05-29T12:04:22.973Z,99703.06
2019-05-29T12:06:42.445Z,99693.94
2019-05-29T12:09:31.893Z,99695.98
2019-05-29T12:11:57.956Z,99692.80
2019-05-29T12:14:34.098Z,99703.52
2019-05-29T12:17:10.154Z,99690.77
2019-05-29T12:19:46.212Z,99693.77
2019-05-29T12:22:22.158Z,99701.90
2019-05-29T12:24:58.638Z,99695.58
2019-05-29T12:27:34.814Z,99700.89
2019-05-29T12:30:12.699Z,99704.52
2019-05-29T12:32:48.750Z,99696.75
2019-05-29T12:35:25.737Z,99703.74
2019-05-29T12:38:03.548Z,99710.38
2019-05-29T12:40:40.058Z,99703.69
2019-05-29T12:43:26.680Z,99710.67
2019-05-29T12:45:55.644Z,99703.66
2019-05-29T12:48:31.768Z,99706.02
2019-05-29T12:51:07.816Z,99716.88
2019-05-29T12:53:43.885Z,99714.74
2019-05-29T12:56:20.052Z,99718.35
2019-05-29T12:58:56.135Z,99713.75
2019-05-29T13:01:32.581Z,99702.45
2019-05-29T13:04:08.840Z,99696.38
2019-05-29T13:06:44.783Z,99711.94
2019-05-29T13:09:20.655Z,99706.16
2019-05-29T13:11:58.468Z,99720.51
2019-05-29T13:14:34.545Z,99698.01
2019-05-29T13:17:10.654Z,99704.28
2019-05-29T13:19:46.716Z,99708.14
2019-05-29T13:22:22.792Z,99718.76
2019-05-29T13:24:59.411Z,99701.94
2019-05-29T13:27:35.405Z,99710.47
2019-05-29T13:30:16.073Z,99713.95
2019-05-29T13:32:52.150Z,99705.28
2019-05-29T13:35:28.300Z,99699.71
2019-05-29T13:38:03.443Z,99706.25
2019-05-29T13:40:38.461Z,99706.63
2019-05-29T13:43:15.819Z,99708.89
2019-05-29T13:45:50.326Z,99705.01
2019-05-29T13:48:25.411Z,99706.86
2019-05-29T13:51:01.684Z,99712.23
2019-05-29T13:53:36.926Z,99719.13
2019-05-29T13:56:12.154Z,99719.17
2019-05-29T13:58:47.186Z,99718.38
2019-05-29T14:01:22.675Z,99713.56
2019-05-29T14:03:58.183Z,99709.88
2019-05-29T14:06:33.336Z,99718.45
2019-05-29T14:09:10.102Z,99712.98
2019-05-29T14:11:45.228Z,99723.98
2019-05-29T14:14:20.946Z,99711.84
2019-05-29T14:16:56.183Z,99727.81
2019-05-29T14:19:32.599Z,99722.59
2019-05-29T14:22:09.113Z,99723.30
2019-05-29T14:24:44.501Z,99711.16
2019-05-29T14:27:19.947Z,99721.98
2019-05-29T14:29:54.990Z,99722.67
2019-05-29T14:32:30.217Z,99723.36
2019-05-29T14:35:07.736Z,99729.86
2019-05-29T14:37:43.469Z,99727.64
2019-05-29T14:40:18.578Z,99730.73
2019-05-29T14:42:53.639Z,99739.48
2019-05-29T14:45:28.880Z,99746.55
2019-05-29T14:48:04.038Z,99739.36
2019-05-29T14:50:40.081Z,99740.58
2019-05-29T14:53:15.120Z,99740.55
2019-05-29T14:55:49.999Z,99741.44
2019-05-29T14:58:25.304Z,99739.40
2019-05-29T15:01:00.319Z,99749.09
2019-05-29T15:03:36.487Z,99741.98
2019-05-29T15:06:11.992Z,99745.20
2019-05-29T15:08:47.252Z,99756.63
2019-05-29T15:11:22.193Z,99740.72
2019-05-29T15:13:57.334Z,99748.34
2019-05-29T15:18:32.786Z,99740.35
2019-05-29T15:21:09.100Z,99748.89
2019-05-29T15:23:46.211Z,99740.74
2019-05-29T15:26:22.260Z,99745.41
2019-05-29T15:28:58.203Z,99742.78
2019-05-29T15:31:34.109Z,99746.34
2019-05-29T15:34:10.320Z,99747.69
2019-05-29T15:36:46.255Z,99758.05
2019-05-29T15:39:22.151Z,99755.09
2019-05-29T15:41:58.106Z,99756.00
2019-05-29T15:44:33.976Z,99764.28
2019-05-29T15:47:10.937Z,99762.38
2019-05-29T15:49:46.881Z,99765.00
2019-05-29T15:52:22.751Z,99769.33
2019-05-29T15:54:58.863Z,99762.85
2019-05-29T15:57:34.704Z,99770.15
2019-05-29T16:00:15.607Z,99766.92
2019-05-29T16:02:51.777Z,99773.64
2019-05-29T16:05:27.700Z,99770.00
2019-05-29T16:08:03.700Z,99778.32
2019-05-29T16:10:40.701Z,99795.08
2019-05-29T16:13:17.295Z,99791.58
2019-05-29T16:15:53.309Z,99798.47
2019-05-29T16:18:29.822Z,99798.11
2019-05-29T16:21:05.876Z,99796.66
2019-05-29T16:23:42.142Z,99807.52
2019-05-29T16:26:19.747Z,99800.68
2019-05-29T16:28:55.597Z,99800.91
2019-05-29T16:31:31.562Z,99800.16
2019-05-29T16:34:07.766Z,99810.28
2019-05-29T16:36:43.774Z,99808.80
2019-05-29T16:39:21.447Z,99807.64
2019-05-29T16:41:58.639Z,99803.05
2019-05-29T16:44:34.515Z,99811.95
2019-05-29T16:47:10.415Z,99811.41
2019-05-29T16:49:46.309Z,99823.14
2019-05-29T16:52:22.945Z,99813.23
2019-05-29T16:54:58.921Z,99820.34
2019-05-29T16:57:34.769Z,99822.49
2019-05-29T17:00:13.562Z,99821.06
2019-05-29T17:02:50.397Z,99822.61
2019-05-29T17:05:26.286Z,99823.61
2019-05-29T17:08:02.168Z,99828.98
2019-05-29T17:10:38.337Z,99830.88
2019-05-29T17:13:14.704Z,99833.48
2019-05-29T17:15:50.689Z,99844.44
2019-05-29T17:18:26.687Z,99851.54
2019-05-29T17:21:02.559Z,99862.04
2019-05-29T17:23:39.021Z,99860.52
2019-05-29T17:26:14.979Z,99860.66
2019-05-29T17:28:50.912Z,99864.28
2019-05-29T17:31:26.804Z,99875.97
2019-05-29T17:34:02.805Z,99869.52
2019-05-29T17:36:38.632Z,99865.72
2019-05-29T17:39:15.206Z,99871.05
2019-05-29T17:41:51.476Z,99877.28
2019-05-29T17:44:27.375Z,99871.94
2019-05-29T17:47:03.646Z,99876.83
2019-05-29T17:49:39.722Z,99878.81
2019-05-29T17:52:15.762Z,99881.45
2019-05-29T17:54:51.732Z,99886.95
2019-05-29T17:57:27.589Z,99885.86
2019-05-29T18:00:05.081Z,99891.94
2019-05-29T18:02:52.066Z,99894.47
2019-05-29T18:05:20.675Z,99892.14
2019-05-29T18:07:56.588Z,99892.88
2019-05-29T18:10:32.486Z,99899.93
2019-05-29T18:13:08.493Z,99897.45
2019-05-29T18:15:45.381Z,99903.20
2019-05-29T18:18:23.673Z,99907.47
2019-05-29T18:20:59.640Z,99898.77
2019-05-29T18:23:35.706Z,99909.57
2019-05-29T18:26:11.722Z,99906.38
2019-05-29T18:28:47.742Z,99915.54
2019-05-29T18:31:24.432Z,99914.88
2019-05-29T18:34:02.030Z,99918.59
2019-05-29T18:36:37.865Z,99925.78
2019-05-29T18:39:14.723Z,99921.22
2019-05-29T18:41:50.668Z,99928.20
2019-05-29T18:44:26.933Z,99927.64
2019-05-29T18:47:03.858Z,99927.80
2019-05-29T18:49:39.761Z,99933.69
2019-05-29T18:52:15.805Z,99941.67
2019-05-29T18:54:51.760Z,99945.59
2019-05-29T18:57:27.684Z,99946.49
2019-05-29T19:00:04.913Z,99950.33
2019-05-29T19:02:41.885Z,99964.01
2019-05-29T19:05:18.211Z,99967.17
2019-05-29T19:07:54.034Z,99969.85
2019-05-29T19:10:29.900Z,99979.16
2019-05-29T19:13:05.843Z,99982.58
2019-05-29T19:15:41.717Z,99988.29
2019-05-29T19:18:17.553Z,99991.81
2019-05-29T19:20:53.435Z,99986.28
2019-05-29T19:23:30.715Z,99997.34
2019-05-29T19:26:07.031Z,100000.11
2019-05-29T19:28:43.781Z,100003.13
2019-05-29T19:31:19.709Z,100012.17
2019-05-29T19:33:55.756Z,100010.66
2019-05-29T19:36:31.913Z,100015.37
2019-05-29T19:39:08.621Z,100015.12
2019-05-29T19:41:44.676Z,100023.14
2019-05-29T19:44:20.665Z,100028.79
2019-05-29T19:46:56.550Z,100028.61
2019-05-29T19:49:33.014Z,100037.80
2019-05-29T19:52:08.955Z,100034.94
2019-05-29T19:54:44.871Z,100035.94
2019-05-29T19:57:21.798Z,100036.80
2019-05-29T19:59:57.839Z,100039.97
2019-05-29T20:02:34.679Z,100037.88
2019-05-29T20:05:11.226Z,100041.81
2019-05-29T20:07:47.153Z,100044.28
2019-05-29T20:10:23.392Z,100045.55
2019-05-29T20:12:59.489Z,100048.14
2019-05-29T20:15:36.083Z,100049.39
2019-05-29T20:18:12.086Z,100044.70
2019-05-29T20:20:47.978Z,100048.91
2019-05-29T20:23:23.923Z,100053.13
2019-05-29T20:25:59.857Z,100046.73
2019-05-29T20:28:36.364Z,100047.87
2019-05-29T20:31:12.366Z,100054.26
2019-05-29T20:33:48.403Z,100054.28
2019-05-29T20:36:24.297Z,100052.18
2019-05-29T20:39:00.217Z,100050.93
2019-05-29T20:41:39.112Z,100052.95
2019-05-29T20:44:13.937Z,100047.41
2019-05-29T20:46:49.948Z,100049.30
2019-05-29T20:49:25.823Z,100047.97
2019-05-29T20:52:01.819Z,100047.07
2019-05-29T20:54:37.780Z,100058.42
2019-05-29T20:57:13.774Z,100057.36
2019-05-29T20:59:49.736Z,100063.08
2019-05-29T21:02:25.718Z,100071.16
2019-05-29T21:05:01.596Z,100066.02
2019-05-29T21:07:38.822Z,100069.52
2019-05-29T21:10:16.250Z,100075.52
2019-05-29T21:12:52.225Z,100077.41
2019-05-29T21:15:28.183Z,100082.94
2019-05-29T21:18:04.161Z,100086.50
2019-05-29T21:20:40.489Z,100090.23
2019-05-29T21:23:16.403Z,100086.06
2019-05-29T21:25:52.287Z,100091.84
2019-05-29T21:28:40.024Z,100098.20
2019-05-29T21:31:05.952Z,100101.55
2019-05-29T21:33:45.067Z,100107.64
2019-05-29T21:36:19.529Z,100108.58
2019-05-29T21:38:55.498Z,100115.98
2019-05-29T21:41:32.730Z,100123.98
2019-05-29T21:44:08.683Z,100120.64
2019-05-29T21:46:45.153Z,100121.50
2019-05-29T21:49:21.121Z,100120.83
2019-05-29T21:51:57.095Z,100121.86
2019-05-29T21:54:33.021Z,100120.23
2019-05-29T21:57:08.905Z,100119.38
2019-05-29T21:59:45.916Z,100124.86
2019-05-29T22:02:22.032Z,100121.97
2019-05-29T22:04:58.023Z,100130.14
2019-05-29T22:07:34.069Z,100137.73
2019-05-29T22:10:10.450Z,100145.42
2019-05-29T22:12:46.711Z,100137.56
2019-05-29T22:15:22.612Z,100137.81
2019-05-29T22:17:59.180Z,100144.95
2019-05-29T22:20:35.590Z,100140.10
2019-05-29T22:23:11.533Z,100146.63
2019-05-29T22:25:47.505Z,100145.45
2019-05-29T22:28:23.960Z,100148.39
2019-05-29T22:30:59.917Z,100146.10
2019-05-29T22:33:36.275Z,100141.87
2019-05-29T22:36:12.251Z,100143.80
2019-05-29T22:38:48.207Z,100146.59
2019-05-29T22:41:24.157Z,100144.21
2019-05-29T22:44:00.219Z,100145.06
2019-05-29T22:46:36.182Z,100141.07
2019-05-29T22:49:12.610Z,100148.34
2019-05-29T22:51:48.495Z,100150.94
2019-05-29T22:54:24.439Z,100145.96
2019-05-29T22:57:02.124Z,100148.04
2019-05-29T22:59:38.315Z,100147.19
2019-05-29T23:02:14.271Z,100145.96
2019-05-29T23:04:50.229Z,100152.63
2019-05-29T23:07:26.439Z,100151.05
2019-05-29T23:10:02.667Z,100148.09
2019-05-29T23:12:39.934Z,100149.04
2019-05-29T23:15:16.348Z,100148.87
2019-05-29T23:17:52.466Z,100153.78
2019-05-29T23:20:28.423Z,100142.45
2019-05-29T23:23:04.577Z,100145.28
2019-05-29T23:25:40.523Z,100147.95
2019-05-29T23:28:16.587Z,100151.63
2019-05-29T23:30:52.816Z,100154.36
2019-05-29T23:33:28.919Z,100158.11
2019-05-29T23:36:04.980Z,100156.95
2019-05-29T23:38:40.930Z,100156.95
2019-05-29T23:41:16.901Z,100159.44
2019-05-29T23:43:53.671Z,100159.55
2019-05-29T23:46:29.628Z,100161.18
2019-05-29T23:49:05.862Z,100158.82
2019-05-29T23:51:41.860Z,100164.14
2019-05-29T23:54:17.791Z,100162.60
2019-05-29T23:56:54.073Z,100161.90
2019-05-29T23:59:30.031Z,100167.77
